Time;durP1;ratioP1;P1;durP2;ratioP2;P2;SDS_P1;SDS_P2;PMS_P1;PMS_P2;Temp;Humidity;BMP_temperature;BMP_pressure;BME280_temperature;BME280_humidity;BME280_pressure;Samples;Min_cycle;Max_cycle;Signal;HPM_P1;HPM_P2
2022/01/10 00:01:33;;;;;;;;;83.67;64.67;;;;;-142.59;100.00;56100.38;4896834;28;49826;-74
2022/01/10 00:03:58;;;;;;;;;79.67;62.33;;;;;-142.59;100.00;56100.38;4896220;28;51332;-74
2022/01/10 00:06:23;;;;;;;;;86.00;69.67;;;;;-142.59;100.00;56100.38;4913930;28;49683;-74
2022/01/10 00:08:49;;;;;;;;;85.00;66.67;;;;;-142.59;100.00;56100.38;4907693;28;49881;-74
2022/01/10 00:11:14;;;;;;;;;86.67;70.00;;;;;-142.59;100.00;56100.38;4914214;28;49685;-74
2022/01/10 00:13:39;;;;;;;;;84.33;66.33;;;;;-142.59;100.00;56100.38;4913364;28;52012;-74
2022/01/10 00:16:05;;;;;;;;;92.33;76.00;;;;;-142.59;100.00;56100.38;4896570;28;49798;-74
2022/01/10 00:18:30;;;;;;;;;89.00;73.33;;;;;-142.59;100.00;56100.38;4913767;28;49676;-74
2022/01/10 00:20:56;;;;;;;;;96.00;81.00;;;;;-142.59;100.00;56100.38;4913753;28;49584;-74
2022/01/10 00:23:21;;;;;;;;;100.33;87.33;;;;;-142.59;100.00;56100.38;4913526;28;49810;-74
2022/01/10 00:25:46;;;;;;;;;94.67;79.00;;;;;-142.59;100.00;56100.38;4913755;28;49860;-74
2022/01/10 00:28:12;;;;;;;;;95.67;82.67;;;;;-142.59;100.00;56100.38;4913241;28;49821;-74
2022/01/10 00:30:37;;;;;;;;;91.00;76.33;;;;;-142.59;100.00;56100.38;4913853;28;49804;-74
2022/01/10 00:33:02;;;;;;;;;97.67;86.67;;;;;-142.59;100.00;56100.38;4913258;28;49854;-74
2022/01/10 00:35:28;;;;;;;;;102.67;85.33;;;;;-142.59;100.00;56100.38;4913231;28;49666;-74
2022/01/10 00:37:53;;;;;;;;;85.67;71.67;;;;;-142.59;100.00;56100.38;4896386;28;50001;-74
2022/01/10 00:40:19;;;;;;;;;93.33;75.00;;;;;-142.59;100.00;56100.38;4913613;28;49824;-74
2022/01/10 00:42:53;;;;;;;;;94.33;77.67;;;;;-142.59;100.00;56100.38;4913106;28;50764;-73
2022/01/10 00:45:23;;;;;;;;;90.33;74.33;;;;;-142.59;100.00;56100.38;4913490;28;49833;-74
2022/01/10 00:47:49;;;;;;;;;83.67;66.33;;;;;-142.59;100.00;56100.38;4913160;28;49888;-74
2022/01/10 00:50:14;;;;;;;;;91.00;75.67;;;;;-142.59;100.00;56100.38;4913330;28;49794;-74
2022/01/10 00:52:40;;;;;;;;;86.33;71.67;;;;;-142.59;100.00;56100.38;4913055;28;49770;-73
2022/01/10 00:55:06;;;;;;;;;87.33;71.33;;;;;-142.59;100.00;56100.38;4913471;28;49905;-74
2022/01/10 00:57:31;;;;;;;;;90.00;69.67;;;;;-142.59;100.00;56100.38;4895826;28;49807;-73
2022/01/10 00:59:57;;;;;;;;;89.67;68.00;;;;;-142.59;100.00;56100.38;4895872;28;49919;-74
2022/01/10 01:02:25;;;;;;;;;82.67;65.67;;;;;-142.59;100.00;56100.38;4912555;28;50821;-73
2022/01/10 01:04:52;;;;;;;;;81.00;66.67;;;;;-142.59;100.00;56100.38;4912651;28;49842;-74
2022/01/10 01:07:17;;;;;;;;;81.33;65.67;;;;;-142.59;100.00;56100.38;4912671;28;49780;-74
2022/01/10 01:09:48;;;;;;;;;81.33;64.67;;;;;-142.59;100.00;56100.38;4912938;28;49774;-74
2022/01/10 01:12:29;;;;;;;;;86.00;70.67;;;;;-142.59;100.00;56100.38;4912268;28;50044;-74
2022/01/10 01:14:57;;;;;;;;;87.67;67.33;;;;;-142.59;100.00;56100.38;4912478;28;49829;-74
2022/01/10 01:25:04;;;;;;;;;85.67;69.33;;;;;-142.59;100.00;56100.38;4897667;28;49973;-74
2022/01/10 01:27:30;;;;;;;;;85.67;66.00;;;;;-142.59;100.00;56100.38;4876861;29;49942;-74
2022/01/10 01:29:55;;;;;;;;;83.33;65.33;;;;;-142.59;100.00;56100.38;4895832;28;49810;-74
2022/01/10 01:32:20;;;;;;;;;70.67;59.00;;;;;-142.59;100.00;56100.38;4897451;28;49737;-74
2022/01/10 01:34:46;;;;;;;;;85.00;65.00;;;;;-142.59;100.00;56100.38;4897517;28;49838;-74
2022/01/10 01:37:12;;;;;;;;;82.33;64.67;;;;;-142.59;100.00;56100.38;4897539;28;49710;-74
2022/01/10 01:39:37;;;;;;;;;82.67;66.33;;;;;-142.59;100.00;56100.38;4897725;28;50075;-74
2022/01/10 01:42:18;;;;;;;;;80.33;64.00;;;;;-142.59;100.00;56100.38;4879781;28;51367;-74
2022/01/10 01:44:47;;;;;;;;;84.33;65.33;;;;;-142.59;100.00;56100.38;4897246;28;50018;-74
2022/01/10 01:47:13;;;;;;;;;80.75;63.50;;;;;-142.59;100.00;56100.38;4880094;29;49916;-74
2022/01/10 01:49:38;;;;;;;;;76.00;59.00;;;;;-142.59;100.00;56100.38;4897609;28;49698;-74
2022/01/10 01:52:04;;;;;;;;;83.67;64.67;;;;;-142.59;100.00;56100.38;4879663;29;49835;-74
2022/01/10 01:54:32;;;;;;;;;78.00;61.33;;;;;-142.59;100.00;56100.38;4880097;29;49779;-74
2022/01/10 01:56:58;;;;;;;;;84.00;66.00;;;;;-142.59;100.00;56100.38;4894838;29;49702;-74
2022/01/10 01:59:24;;;;;;;;;77.00;62.00;;;;;-142.59;100.00;56100.38;4881032;28;49723;-74
2022/01/10 02:01:49;;;;;;;;;77.67;64.33;;;;;-142.59;100.00;56100.38;4915613;28;49850;-74
2022/01/10 02:04:14;;;;;;;;;74.50;60.50;;;;;-142.59;100.00;56100.38;4898346;28;49610;-75
2022/01/10 02:06:40;;;;;;;;;83.00;63.25;;;;;-142.59;100.00;56100.38;4915820;28;49793;-75
2022/01/10 02:09:05;;;;;;;;;74.50;59.25;;;;;-142.59;100.00;56100.38;4915593;28;49702;-74
2022/01/10 02:11:30;;;;;;;;;71.25;58.75;;;;;-142.59;100.00;56100.38;4915188;28;50327;-74
2022/01/10 02:13:56;;;;;;;;;77.00;61.00;;;;;-142.59;100.00;56100.38;4915573;28;49680;-74
2022/01/10 02:16:40;;;;;;;;;72.75;57.25;;;;;-142.59;100.00;56100.38;4915653;28;49888;-74
2022/01/10 02:19:05;;;;;;;;;74.00;60.00;;;;;-142.59;100.00;56100.38;4915752;28;49785;-74
2022/01/10 02:21:30;;;;;;;;;66.50;55.25;;;;;-142.59;100.00;56100.38;4915351;28;50699;-74
2022/01/10 02:23:57;;;;;;;;;74.00;57.75;;;;;-142.59;100.00;56100.38;4915354;28;49682;-74
2022/01/10 02:26:23;;;;;;;;;69.25;56.75;;;;;-142.59;100.00;56100.38;4915420;28;49814;-74
2022/01/10 02:28:49;;;;;;;;;67.25;55.75;;;;;-142.59;100.00;56100.38;4914094;28;50015;-74
2022/01/10 02:31:14;;;;;;;;;67.75;55.25;;;;;-142.59;100.00;56100.38;4915150;28;50875;-74
2022/01/10 02:33:40;;;;;;;;;70.50;57.25;;;;;-142.59;100.00;56100.38;4915349;28;49744;-74
2022/01/10 02:36:26;;;;;;;;;40.25;29.50;;;;;-142.59;100.00;56100.38;4915280;28;50019;-74
2022/01/10 02:39:03;;;;;;;;;63.00;52.25;;;;;-142.59;100.00;56100.38;4915350;28;50139;-74
2022/01/10 02:41:34;;;;;;;;;67.25;55.25;;;;;-142.59;100.00;56100.38;4914811;28;50069;-74
2022/01/10 02:44:07;;;;;;;;;71.75;55.75;;;;;-142.59;100.00;56100.38;4914949;28;49737;-74
2022/01/10 02:46:34;;;;;;;;;71.25;55.50;;;;;-142.59;100.00;56100.38;4915136;28;50147;-74
2022/01/10 02:49:00;;;;;;;;;68.50;55.75;;;;;-142.59;100.00;56100.38;4915087;28;49626;-74
2022/01/10 02:51:26;;;;;;;;;69.50;56.25;;;;;-142.59;100.00;56100.38;4897554;28;52181;-73
2022/01/10 02:53:51;;;;;;;;;69.25;56.50;;;;;-142.59;100.00;56100.38;4914899;28;49820;-74
2022/01/10 02:56:17;;;;;;;;;71.75;57.00;;;;;-142.59;100.00;56100.38;4915083;28;50172;-73
2022/01/10 02:58:42;;;;;;;;;69.00;56.25;;;;;-142.59;100.00;56100.38;4897453;28;49900;-73
2022/01/10 03:01:08;;;;;;;;;73.00;55.50;;;;;-142.59;100.00;56100.38;4914469;28;50748;-74
2022/01/10 03:03:33;;;;;;;;;70.25;56.25;;;;;-142.59;100.00;56100.38;4897479;28;49855;-74
2022/01/10 03:06:00;;;;;;;;;64.25;54.25;;;;;-142.59;100.00;56100.38;4914903;28;49788;-73
2022/01/10 03:08:27;;;;;;;;;65.00;54.50;;;;;-142.59;100.00;56100.38;4914854;28;49860;-74
2022/01/10 03:10:53;;;;;;;;;65.50;55.75;;;;;-142.59;100.00;56100.38;4897478;28;49805;-74
2022/01/10 03:13:18;;;;;;;;;69.75;56.00;;;;;-142.59;100.00;56100.38;4914407;28;50028;-74
2022/01/10 03:15:44;;;;;;;;;59.00;48.25;;;;;-142.59;100.00;56100.38;4896932;28;49836;-74
2022/01/10 03:18:10;;;;;;;;;57.75;48.25;;;;;-142.59;100.00;56100.38;4914898;28;49972;-74
2022/01/10 03:20:36;;;;;;;;;72.00;58.25;;;;;-142.59;100.00;56100.38;4914469;28;49653;-74
2022/01/10 03:23:02;;;;;;;;;71.00;57.00;;;;;-142.59;100.00;56100.38;4914626;28;49982;-74
2022/01/10 03:25:27;;;;;;;;;76.50;56.75;;;;;-142.59;100.00;56100.38;4914629;28;49736;-74
2022/01/10 03:27:52;;;;;;;;;69.25;56.50;;;;;-142.59;100.00;56100.38;4914428;28;49874;-74
2022/01/10 03:30:18;;;;;;;;;78.00;60.75;;;;;-142.59;100.00;56100.38;4914215;28;49697;-74
2022/01/10 03:32:45;;;;;;;;;76.25;61.00;;;;;-142.59;100.00;56100.38;4914321;28;49743;-73
2022/01/10 03:35:11;;;;;;;;;72.25;59.00;;;;;-142.59;100.00;56100.38;4914470;28;49716;-74
2022/01/10 03:37:36;;;;;;;;;73.25;57.50;;;;;-142.59;100.00;56100.38;4914535;28;49725;-74
2022/01/10 03:40:02;;;;;;;;;71.00;58.75;;;;;-142.59;100.00;56100.38;4913721;28;49746;-74
2022/01/10 03:42:28;;;;;;;;;76.75;61.75;;;;;-142.59;100.00;56100.38;4896709;28;49625;-74
2022/01/10 03:44:53;;;;;;;;;73.25;58.50;;;;;-142.59;100.00;56100.38;4913886;28;49882;-74
2022/01/10 03:47:20;;;;;;;;;71.00;57.50;;;;;-142.59;100.00;56100.38;4897115;28;49924;-74
2022/01/10 03:49:46;;;;;;;;;73.25;58.25;;;;;-142.59;100.00;56100.38;4896652;28;52508;-74
2022/01/10 03:52:11;;;;;;;;;70.50;56.00;;;;;-142.59;100.00;56100.38;4914147;28;49673;-74
2022/01/10 03:54:36;;;;;;;;;68.75;56.00;;;;;-142.59;100.00;56100.38;4914263;28;49692;-73
2022/01/10 03:57:02;;;;;;;;;71.25;58.00;;;;;-142.59;100.00;56100.38;4913998;28;50009;-73
2022/01/10 03:59:27;;;;;;;;;70.50;56.75;;;;;-142.59;100.00;56100.38;4896412;28;51696;-73
2022/01/10 04:01:53;;;;;;;;;70.00;58.25;;;;;-142.59;100.00;56100.38;4913964;28;50103;-74
2022/01/10 04:04:19;;;;;;;;;68.75;56.50;;;;;-142.59;100.00;56100.38;4914097;28;49649;-73
2022/01/10 04:06:44;;;;;;;;;69.00;54.00;;;;;-142.59;100.00;56100.38;4913954;28;49800;-74
2022/01/10 04:09:10;;;;;;;;;69.50;56.25;;;;;-142.59;100.00;56100.38;4895835;28;51024;-74
2022/01/10 04:11:35;;;;;;;;;68.75;55.00;;;;;-142.59;100.00;56100.38;4913428;28;49843;-74
2022/01/10 04:14:01;;;;;;;;;69.75;55.75;;;;;-142.59;100.00;56100.38;4913878;28;49598;-74
2022/01/10 04:16:26;;;;;;;;;74.75;59.50;;;;;-142.59;100.00;56100.38;4913901;28;49673;-74
2022/01/10 04:18:52;;;;;;;;;76.25;57.00;;;;;-142.59;100.00;56100.38;4913545;28;50615;-74
2022/01/10 04:21:17;;;;;;;;;72.25;57.50;;;;;-142.59;100.00;56100.38;4913635;28;49656;-74
2022/01/10 04:23:43;;;;;;;;;66.50;54.00;;;;;-142.59;100.00;56100.38;4896553;28;49684;-74
2022/01/10 04:26:08;;;;;;;;;71.00;57.25;;;;;-142.59;100.00;56100.38;4913730;28;50051;-74
2022/01/10 04:28:33;;;;;;;;;73.50;56.50;;;;;-142.59;100.00;56100.38;4895644;28;51463;-74
2022/01/10 04:30:59;;;;;;;;;70.25;56.25;;;;;-142.59;100.00;56100.38;4913595;28;49904;-74
2022/01/10 04:33:29;;;;;;;;;69.75;57.50;;;;;-142.59;100.00;56100.38;4896506;28;50031;-74
2022/01/10 04:35:56;;;;;;;;;73.25;58.50;;;;;-142.59;100.00;56100.38;4913834;28;50140;-73
2022/01/10 04:38:22;;;;;;;;;68.25;55.50;;;;;-142.59;100.00;56100.38;4913529;28;50318;-73
2022/01/10 04:41:01;;;;;;;;;67.50;55.50;;;;;-142.59;100.00;56100.38;4913526;28;49974;-72
2022/01/10 04:43:30;;;;;;;;;72.25;60.00;;;;;-142.59;100.00;56100.38;4913470;28;49708;-73
2022/01/10 04:45:58;;;;;;;;;66.25;54.75;;;;;-142.59;100.00;56100.38;4913816;28;50126;-73
2022/01/10 04:51:19;;;;;;;;;69.25;55.00;;;;;-142.59;100.00;56100.38;4912210;28;49656;-72
2022/01/10 04:53:48;;;;;;;;;72.00;58.00;;;;;-142.59;100.00;56100.38;4896191;28;49886;-73
2022/01/10 04:56:16;;;;;;;;;73.50;58.75;;;;;-142.59;100.00;56100.38;4900240;28;49894;-73
2022/01/10 04:58:42;;;;;;;;;69.00;57.50;;;;;-142.59;100.00;56100.38;4914243;28;49711;-73
2022/01/10 05:01:14;;;;;;;;;68.50;54.75;;;;;-142.59;100.00;56100.38;4895887;28;49974;-73
2022/01/10 05:03:46;;;;;;;;;69.50;56.50;;;;;-142.59;100.00;56100.38;4913524;28;49730;-73
2022/01/10 05:06:12;;;;;;;;;72.50;57.25;;;;;-142.59;100.00;56100.38;4893094;28;49769;-73
2022/01/10 05:08:37;;;;;;;;;70.25;57.75;;;;;-142.59;100.00;56100.38;4900025;28;49832;-73
2022/01/10 05:11:03;;;;;;;;;72.50;57.25;;;;;-142.59;100.00;56100.38;4916780;28;49760;-73
2022/01/10 05:13:29;;;;;;;;;71.25;59.25;;;;;-142.59;100.00;56100.38;4915752;28;50136;-73
2022/01/10 05:15:54;;;;;;;;;72.25;58.00;;;;;-142.59;100.00;56100.38;4897429;28;49951;-73
2022/01/10 05:18:22;;;;;;;;;73.25;58.00;;;;;-142.59;100.00;56100.38;4915669;28;50501;-73
2022/01/10 05:20:49;;;;;;;;;69.25;57.00;;;;;-142.59;100.00;56100.38;4898120;28;49548;-74
2022/01/10 05:23:15;;;;;;;;;71.25;56.25;;;;;-142.59;100.00;56100.38;4898593;28;49653;-72
2022/01/10 05:25:46;;;;;;;;;74.00;59.00;;;;;-142.59;100.00;56100.38;4901217;28;49776;-73
2022/01/10 05:28:13;;;;;;;;;72.25;58.00;;;;;-142.59;100.00;56100.38;4915940;28;50070;-73
2022/01/10 05:30:40;;;;;;;;;69.75;56.75;;;;;-142.59;100.00;56100.38;4917195;28;49586;-73
2022/01/10 05:33:07;;;;;;;;;69.25;56.75;;;;;-142.59;100.00;56100.38;4918380;28;49819;-73
2022/01/10 05:35:36;;;;;;;;;72.75;57.25;;;;;-142.59;100.00;56100.38;4903001;28;49700;-73
2022/01/10 05:38:03;;;;;;;;;72.50;59.50;;;;;-142.59;100.00;56100.38;4919342;28;49987;-73
2022/01/10 05:40:41;;;;;;;;;78.75;61.25;;;;;-142.59;100.00;56100.38;4895343;28;49823;-74
2022/01/10 05:43:07;;;;;;;;;75.00;58.75;;;;;-142.59;100.00;56100.38;4912803;28;49839;-73
2022/01/10 05:45:33;;;;;;;;;72.00;58.75;;;;;-142.59;100.00;56100.38;4912786;28;50228;-72
2022/01/10 05:48:08;;;;;;;;;76.25;60.00;;;;;-142.59;100.00;56100.38;4912575;28;49731;-72
2022/01/10 05:50:36;;;;;;;;;69.75;57.00;;;;;-142.59;100.00;56100.38;4913585;28;49830;-73
2022/01/10 05:53:01;;;;;;;;;73.75;59.25;;;;;-142.59;100.00;56100.38;4913960;28;49774;-75
2022/01/10 05:55:27;;;;;;;;;76.50;61.00;;;;;-142.59;100.00;56100.38;4912854;28;49742;-73
2022/01/10 05:57:53;;;;;;;;;76.75;59.00;;;;;-142.59;100.00;56100.38;4912130;28;50199;-73
2022/01/10 06:00:24;;;;;;;;;71.25;58.50;;;;;-142.59;100.00;56100.38;4914849;28;49619;-74
2022/01/10 06:02:53;;;;;;;;;73.25;57.75;;;;;-142.59;100.00;56100.38;4919185;28;49812;-73
2022/01/10 06:05:20;;;;;;;;;74.25;60.75;;;;;-142.59;100.00;56100.38;4904416;28;49891;-73
2022/01/10 06:07:51;;;;;;;;;76.75;60.00;;;;;-142.59;100.00;56100.38;4916152;28;49743;-72
2022/01/10 06:10:16;;;;;;;;;81.25;64.00;;;;;-142.59;100.00;56100.38;4906383;28;50031;-72
2022/01/10 06:12:41;;;;;;;;;71.00;59.75;;;;;-142.59;100.00;56100.38;4898255;28;50248;-72
2022/01/10 06:15:07;;;;;;;;;80.50;63.25;;;;;-142.59;100.00;56100.38;4917640;28;50031;-71
2022/01/10 06:17:33;;;;;;;;;70.00;57.25;;;;;-142.59;100.00;56100.38;4917852;28;49872;-71
2022/01/10 06:19:59;;;;;;;;;71.75;59.75;;;;;-142.59;100.00;56100.38;4915320;28;49738;-75
2022/01/10 06:22:25;;;;;;;;;74.00;61.00;;;;;-142.59;100.00;56100.38;4898586;28;50120;-71
2022/01/10 06:24:50;;;;;;;;;75.00;61.33;;;;;-142.59;100.00;56100.38;4915471;28;49632;-71
2022/01/10 06:27:15;;;;;;;;;75.25;58.75;;;;;-142.59;100.00;56100.38;4915562;28;50679;-71
2022/01/10 06:29:41;;;;;;;;;74.00;59.75;;;;;-142.59;100.00;56100.38;4915346;28;49895;-72
2022/01/10 06:32:07;;;;;;;;;78.25;61.00;;;;;-142.59;100.00;56100.38;4915971;28;50055;-71
2022/01/10 06:34:32;;;;;;;;;69.00;58.00;;;;;-142.59;100.00;56100.38;4897961;28;49841;-71
2022/01/10 06:36:59;;;;;;;;;73.50;59.75;;;;;-142.59;100.00;56100.38;4915038;28;49787;-72
2022/01/10 06:39:25;;;;;;;;;83.00;66.00;;;;;-142.59;100.00;56100.38;4919033;28;49928;-68
2022/01/10 06:41:50;;;;;;;;;79.67;63.00;;;;;-142.59;100.00;56100.38;4914979;28;49734;-69
2022/01/10 06:44:16;;;;;;;;;87.67;67.33;;;;;-142.59;100.00;56100.38;4915293;28;50004;-69
2022/01/10 06:46:41;;;;;;;;;73.00;60.00;;;;;-142.59;100.00;56100.38;4915066;28;50553;-73
2022/01/10 06:49:06;;;;;;;;;77.67;63.33;;;;;-142.59;100.00;56100.38;4897692;28;49817;-68
2022/01/10 06:51:32;;;;;;;;;77.25;61.75;;;;;-142.59;100.00;56100.38;4916405;28;49787;-79
2022/01/10 06:53:57;;;;;;;;;85.00;61.00;;;;;-142.59;100.00;56100.38;4915124;28;50385;-76
2022/01/10 06:56:22;;;;;;;;;75.50;59.50;;;;;-142.59;100.00;56100.38;4900097;28;53067;-75
2022/01/10 06:58:48;;;;;;;;;74.75;57.50;;;;;-142.59;100.00;56100.38;4927907;28;49887;-75
2022/01/10 07:01:17;;;;;;;;;71.25;56.75;;;;;-142.59;100.00;56100.38;4928468;28;49767;-75
2022/01/10 07:03:44;;;;;;;;;72.00;58.75;;;;;-142.59;100.00;56100.38;4899299;28;49767;-72
2022/01/10 07:06:10;;;;;;;;;67.75;55.75;;;;;-142.59;100.00;56100.38;4922459;28;49963;-71
2022/01/10 07:08:35;;;;;;;;;68.50;53.50;;;;;-142.59;100.00;56100.38;4903386;28;49923;-71
2022/01/10 07:11:00;;;;;;;;;74.50;59.75;;;;;-142.59;100.00;56100.38;4920403;28;49705;-72
2022/01/10 07:13:26;;;;;;;;;74.75;57.75;;;;;-142.59;100.00;56100.38;4918152;28;49843;-72
2022/01/10 07:15:52;;;;;;;;;62.75;54.00;;;;;-142.59;100.00;56100.38;4917227;28;50838;-72
2022/01/10 07:18:17;;;;;;;;;63.75;53.50;;;;;-142.59;100.00;56100.38;4915397;28;49790;-72
2022/01/10 07:20:43;;;;;;;;;62.00;53.50;;;;;-142.59;100.00;56100.38;4921090;28;49967;-72
2022/01/10 07:23:08;;;;;;;;;73.00;57.50;;;;;-142.59;100.00;56100.38;4918420;28;49578;-72
2022/01/10 07:25:35;;;;;;;;;64.25;51.25;;;;;-142.59;100.00;56100.38;4914515;28;50460;-72
2022/01/10 07:28:00;;;;;;;;;68.50;57.00;;;;;-142.59;100.00;56100.38;4921354;28;49875;-72
2022/01/10 07:30:25;;;;;;;;;71.25;55.75;;;;;-142.59;100.00;56100.38;4917329;28;49745;-72
2022/01/10 07:32:51;;;;;;;;;73.75;55.75;;;;;-142.59;100.00;56100.38;4920220;28;49644;-71
2022/01/10 07:35:17;;;;;;;;;74.50;58.25;;;;;-142.59;100.00;56100.38;4916811;28;50825;-72
2022/01/10 07:37:42;;;;;;;;;68.25;55.00;;;;;-142.59;100.00;56100.38;4914242;28;49783;-70
2022/01/10 07:40:08;;;;;;;;;73.75;53.00;;;;;-142.59;100.00;56100.38;4916787;28;50034;-66
2022/01/10 07:42:33;;;;;;;;;66.00;54.25;;;;;-142.59;100.00;56100.38;4910008;28;49627;-64
2022/01/10 07:44:59;;;;;;;;;64.75;53.25;;;;;-142.59;100.00;56100.38;4905683;28;51618;-66
2022/01/10 07:47:24;;;;;;;;;69.25;53.75;;;;;-142.59;100.00;56100.38;4919431;28;49689;-71
2022/01/10 07:49:51;;;;;;;;;66.50;49.25;;;;;-142.59;100.00;56100.38;4900845;28;49943;-66
2022/01/10 07:52:17;;;;;;;;;64.75;52.00;;;;;-142.59;100.00;56100.38;4914534;28;49750;-63
2022/01/10 07:54:44;;;;;;;;;61.50;48.00;;;;;-142.59;100.00;56100.38;4913850;28;50956;-69
2022/01/10 07:57:10;;;;;;;;;65.00;52.00;;;;;-142.59;100.00;56100.38;4915045;28;49741;-65
2022/01/10 07:59:35;;;;;;;;;60.25;47.50;;;;;-142.59;100.00;56100.38;4914071;28;49801;-72
2022/01/10 08:02:00;;;;;;;;;62.50;52.25;;;;;-142.59;100.00;56100.38;4919753;28;49825;-64
2022/01/10 08:04:26;;;;;;;;;66.50;48.25;;;;;-142.59;100.00;56100.38;4913819;28;50696;-66
2022/01/10 08:06:51;;;;;;;;;61.00;48.50;;;;;-142.59;100.00;56100.38;4896400;28;49698;-66
2022/01/10 08:09:17;;;;;;;;;63.00;48.75;;;;;-142.59;100.00;56100.38;4896717;28;50137;-65
2022/01/10 08:11:43;;;;;;;;;58.75;44.50;;;;;-142.59;100.00;56100.38;4913822;28;49825;-66
2022/01/10 08:14:08;;;;;;;;;53.25;44.25;;;;;-142.59;100.00;56100.38;4913636;28;50743;-66
2022/01/10 08:16:34;;;;;;;;;61.75;48.50;;;;;-142.59;100.00;56100.38;4914096;28;49981;-68
2022/01/10 08:18:59;;;;;;;;;67.75;55.00;;;;;-142.59;100.00;56100.38;4915091;28;49695;-68
2022/01/10 08:21:24;;;;;;;;;67.75;53.00;;;;;-142.59;100.00;56100.38;4913638;28;49826;-68
2022/01/10 08:23:50;;;;;;;;;61.75;45.00;;;;;-142.59;100.00;56100.38;4913280;28;49814;-68
2022/01/10 08:26:16;;;;;;;;;65.75;51.75;;;;;-142.59;100.00;56100.38;4912251;28;49738;-67
2022/01/10 08:28:42;;;;;;;;;63.00;52.25;;;;;-142.59;100.00;56100.38;4913707;28;49753;-68
2022/01/10 08:31:11;;;;;;;;;58.50;44.00;;;;;-142.59;100.00;56100.38;4913955;28;49791;-67
2022/01/10 08:33:37;;;;;;;;;58.50;48.00;;;;;-142.59;100.00;56100.38;4913423;28;50967;-68
2022/01/10 08:36:02;;;;;;;;;53.50;44.75;;;;;-142.59;100.00;56100.38;4913495;28;49789;-68
2022/01/10 08:38:28;;;;;;;;;60.25;47.00;;;;;-142.59;100.00;56100.38;4913730;28;49742;-68
2022/01/10 08:40:53;;;;;;;;;61.00;47.00;;;;;-142.59;100.00;56100.38;4896221;28;49973;-68
2022/01/10 08:43:18;;;;;;;;;60.50;50.00;;;;;-142.59;100.00;56100.38;4913143;28;49673;-67
2022/01/10 08:45:44;;;;;;;;;50.00;44.00;;;;;-142.59;100.00;56100.38;4896069;28;49738;-68
2022/01/10 08:48:10;;;;;;;;;55.25;48.25;;;;;-142.59;100.00;56100.38;4896497;28;50096;-68
2022/01/10 08:50:36;;;;;;;;;45.25;40.00;;;;;-142.59;100.00;56100.38;4896737;28;49999;-67
2022/01/10 08:53:03;;;;;;;;;52.00;41.25;;;;;-142.59;100.00;56100.38;4913581;28;49664;-67
2022/01/10 08:55:29;;;;;;;;;51.00;43.50;;;;;-142.59;100.00;56100.38;4913334;28;49850;-67
2022/01/10 08:57:54;;;;;;;;;61.25;46.00;;;;;-142.59;100.00;56100.38;4913134;28;49647;-67
2022/01/10 09:00:20;;;;;;;;;59.75;46.25;;;;;-142.59;100.00;56100.38;4913361;28;49881;-67
2022/01/10 09:02:45;;;;;;;;;57.25;46.75;;;;;-142.59;100.00;56100.38;4913116;28;50282;-68
2022/01/10 09:05:11;;;;;;;;;55.00;44.75;;;;;-142.59;100.00;56100.38;4913589;28;50047;-68
2022/01/10 09:07:36;;;;;;;;;66.25;52.00;;;;;-142.59;100.00;56100.38;4913065;28;49825;-68
2022/01/10 09:10:03;;;;;;;;;51.50;41.00;;;;;-142.59;100.00;56100.38;4913454;28;49769;-68
2022/01/10 09:12:28;;;;;;;;;49.75;41.00;;;;;-142.59;100.00;56100.38;4912727;28;49940;-67
2022/01/10 09:14:54;;;;;;;;;53.00;43.25;;;;;-142.59;100.00;56100.38;4913645;28;50038;-69
2022/01/10 09:17:19;;;;;;;;;56.00;46.25;;;;;-142.59;100.00;56100.38;4913029;28;50294;-68
2022/01/10 09:19:45;;;;;;;;;37.25;32.25;;;;;-142.59;100.00;56100.38;4913086;28;49743;-69
2022/01/10 09:22:10;;;;;;;;;51.25;44.00;;;;;-142.59;100.00;56100.38;4912889;28;50875;-69
2022/01/10 09:24:36;;;;;;;;;46.50;41.50;;;;;-142.59;100.00;56100.38;4913086;28;49750;-69
2022/01/10 09:27:01;;;;;;;;;43.75;39.25;;;;;-142.59;100.00;56100.38;4913032;28;50326;-69
2022/01/10 09:29:26;;;;;;;;;33.00;31.75;;;;;-142.59;100.00;56100.38;4913253;28;49588;-68
2022/01/10 09:31:52;;;;;;;;;43.00;32.75;;;;;-142.59;100.00;56100.38;4912978;28;50416;-69
2022/01/10 09:34:17;;;;;;;;;37.50;35.00;;;;;-142.59;100.00;56100.38;4895259;28;49921;-69
2022/01/10 09:36:43;;;;;;;;;33.75;32.25;;;;;-142.59;100.00;56100.38;4912937;28;50039;-68
2022/01/10 09:39:09;;;;;;;;;41.50;33.50;;;;;-142.59;100.00;56100.38;4916426;28;49742;-69
2022/01/10 09:41:35;;;;;;;;;32.25;30.25;;;;;-142.59;100.00;56100.38;4915975;28;50597;-69
2022/01/10 09:44:03;;;;;;;;;41.75;35.75;;;;;-142.59;100.00;56100.38;4916174;28;49686;-69
2022/01/10 09:46:30;;;;;;;;;38.25;31.00;;;;;-142.59;100.00;56100.38;4916206;28;49748;-69
2022/01/10 09:48:59;;;;;;;;;35.25;32.50;;;;;-142.59;100.00;56100.38;4916040;28;49555;-68
2022/01/10 09:51:27;;;;;;;;;36.75;33.50;;;;;-142.59;100.00;56100.38;4915930;28;49911;-69
2022/01/10 09:53:54;;;;;;;;;40.50;39.00;;;;;-142.59;100.00;56100.38;4915475;28;49763;-69
2022/01/10 09:56:20;;;;;;;;;42.00;38.25;;;;;-142.59;100.00;56100.38;4915771;28;49741;-69
2022/01/10 09:58:46;;;;;;;;;32.75;28.75;;;;;-142.59;100.00;56100.38;4916097;28;49928;-68
2022/01/10 10:01:14;;;;;;;;;47.75;38.50;;;;;-142.59;100.00;56100.38;4915457;28;49808;-69
2022/01/10 10:03:43;;;;;;;;;43.00;35.75;;;;;-142.59;100.00;56100.38;4915959;28;49685;-69
2022/01/10 10:06:09;;;;;;;;;39.50;33.25;;;;;-142.59;100.00;56100.38;4916214;28;49791;-69
2022/01/10 10:08:38;;;;;;;;;42.25;30.25;;;;;-142.59;100.00;56100.38;4915759;28;49998;-69
2022/01/10 10:11:07;;;;;;;;;40.25;34.50;;;;;-142.59;100.00;56100.38;4897586;28;52177;-69
2022/01/10 10:13:41;;;;;;;;;42.75;38.25;;;;;-142.59;100.00;56100.38;4915583;28;49934;-69
2022/01/10 10:16:12;;;;;;;;;48.00;39.25;;;;;-142.59;100.00;56100.38;4915686;28;50009;-70
2022/01/10 10:18:38;;;;;;;;;43.75;39.75;;;;;-142.59;100.00;56100.38;4916114;28;49739;-69
2022/01/10 10:21:03;;;;;;;;;41.50;36.75;;;;;-142.59;100.00;56100.38;4915403;28;50787;-69
2022/01/10 10:23:31;;;;;;;;;35.25;30.50;;;;;-142.59;100.00;56100.38;4915611;28;49766;-68
2022/01/10 10:25:56;;;;;;;;;38.00;36.00;;;;;-142.59;100.00;56100.38;4915309;28;49760;-68
2022/01/10 10:28:22;;;;;;;;;38.75;38.00;;;;;-142.59;100.00;56100.38;4915455;28;49753;-69
2022/01/10 10:30:48;;;;;;;;;49.00;40.50;;;;;-142.59;100.00;56100.38;4915290;28;50833;-68
2022/01/10 10:33:16;;;;;;;;;38.75;34.75;;;;;-142.59;100.00;56100.38;4915662;28;49692;-69
2022/01/10 10:35:43;;;;;;;;;45.75;40.25;;;;;-142.59;100.00;56100.38;4915579;28;49714;-68
2022/01/10 10:38:09;;;;;;;;;42.50;37.75;;;;;-142.59;100.00;56100.38;4915785;28;50080;-69
2022/01/10 10:40:42;;;;;;;;;39.25;37.75;;;;;-142.59;100.00;56100.38;4915408;28;49883;-68
2022/01/10 10:43:09;;;;;;;;;48.25;39.00;;;;;-142.59;100.00;56100.38;4914936;28;49789;-68
2022/01/10 10:45:34;;;;;;;;;48.50;40.75;;;;;-142.59;100.00;56100.38;4915312;28;49614;-68
2022/01/10 10:48:05;;;;;;;;;44.50;38.00;;;;;-142.59;100.00;56100.38;4897656;28;49568;-68
2022/01/10 10:50:34;;;;;;;;;43.75;38.00;;;;;-142.59;100.00;56100.38;4914468;28;50244;-68
2022/01/10 10:53:04;;;;;;;;;41.00;38.00;;;;;-142.59;100.00;56100.38;4915050;28;49705;-68
2022/01/10 10:55:29;;;;;;;;;42.00;38.50;;;;;-142.59;100.00;56100.38;4915120;28;49745;-68
2022/01/10 10:57:56;;;;;;;;;46.50;38.00;;;;;-142.59;100.00;56100.38;4915050;28;50098;-69
2022/01/10 11:00:21;;;;;;;;;44.50;39.50;;;;;-142.59;100.00;56100.38;4914793;28;50874;-68
2022/01/10 11:02:47;;;;;;;;;47.25;39.00;;;;;-142.59;100.00;56100.38;4915062;28;49765;-69